sensor_id;sensor_type;location;lat;lon;timestamp;pressure;altitude;pressure_sealevel;temperature;humidity
30421;BME280;17218;54.070;10.012;2022-07-01T00:01:31;100832.34;;;20.91;100.00
30421;BME280;17218;54.070;10.012;2022-07-01T00:03:59;100824.19;;;20.97;100.00
30421;BME280;17218;54.070;10.012;2022-07-01T00:06:26;100832.63;;;21.04;100.00
30421;BME280;17218;54.070;10.012;2022-07-01T00:08:52;100837.03;;;21.03;100.00
30421;BME280;17218;54.070;10.012;2022-07-01T00:11:19;100841.25;;;20.88;100.00
30421;BME280;17218;54.070;10.012;2022-07-01T00:13:46;100859.66;;;20.88;100.00
30421;BME280;17218;54.070;10.012;2022-07-01T00:16:12;100866.31;;;20.97;100.00
30421;BME280;17218;54.070;10.012;2022-07-01T00:18:39;100874.44;;;21.10;100.00
30421;BME280;17218;54.070;10.012;2022-07-01T00:21:07;100868.72;;;21.19;100.00
30421;BME280;17218;54.070;10.012;2022-07-01T00:23:33;100881.66;;;21.24;100.00
30421;BME280;17218;54.070;10.012;2022-07-01T00:26:00;100916.53;;;21.29;100.00
30421;BME280;17218;54.070;10.012;2022-07-01T00:28:26;100950.59;;;21.32;100.00
30421;BME280;17218;54.070;10.012;2022-07-01T00:30:53;100969.38;;;21.26;100.00
30421;BME280;17218;54.070;10.012;2022-07-01T00:33:19;100949.38;;;21.22;100.00
30421;BME280;17218;54.070;10.012;2022-07-01T00:35:46;100957.19;;;21.24;100.00
30421;BME280;17218;54.070;10.012;2022-07-01T00:38:15;100955.09;;;21.30;100.00
30421;BME280;17218;54.070;10.012;2022-07-01T00:40:41;100948.84;;;21.33;100.00
30421;BME280;17218;54.070;10.012;2022-07-01T00:43:08;100943.84;;;21.27;100.00
30421;BME280;17218;54.070;10.012;2022-07-01T00:45:35;100940.59;;;21.21;100.00
30421;BME280;17218;54.070;10.012;2022-07-01T00:48:01;100938.66;;;21.25;100.00
30421;BME280;17218;54.070;10.012;2022-07-01T00:50:28;100919.69;;;21.36;100.00
30421;BME280;17218;54.070;10.012;2022-07-01T00:52:55;100918.16;;;21.50;100.00
30421;BME280;17218;54.070;10.012;2022-07-01T00:55:23;100919.63;;;21.55;100.00
30421;BME280;17218;54.070;10.012;2022-07-01T00:57:49;100906.63;;;21.52;100.00
30421;BME280;17218;54.070;10.012;2022-07-01T01:00:17;100900.22;;;21.56;100.00
30421;BME280;17218;54.070;10.012;2022-07-01T01:02:46;100887.59;;;21.63;100.00
30421;BME280;17218;54.070;10.012;2022-07-01T01:05:12;100886.50;;;21.67;100.00
30421;BME280;17218;54.070;10.012;2022-07-01T01:07:39;100890.16;;;21.65;100.00
30421;BME280;17218;54.070;10.012;2022-07-01T01:10:06;100894.66;;;21.63;100.00
30421;BME280;17218;54.070;10.012;2022-07-01T01:12:35;100902.56;;;21.63;100.00
30421;BME280;17218;54.070;10.012;2022-07-01T01:15:02;100898.16;;;21.63;100.00
30421;BME280;17218;54.070;10.012;2022-07-01T01:17:29;100894.50;;;21.48;100.00
30421;BME280;17218;54.070;10.012;2022-07-01T01:19:56;100884.66;;;21.52;100.00
30421;BME280;17218;54.070;10.012;2022-07-01T01:22:24;100895.03;;;21.55;100.00
30421;BME280;17218;54.070;10.012;2022-07-01T01:24:51;100890.47;;;21.59;100.00
30421;BME280;17218;54.070;10.012;2022-07-01T01:27:17;100875.69;;;21.56;100.00
30421;BME280;17218;54.070;10.012;2022-07-01T01:29:44;100866.91;;;21.55;100.00
30421;BME280;17218;54.070;10.012;2022-07-01T01:32:11;100877.38;;;21.57;100.00
30421;BME280;17218;54.070;10.012;2022-07-01T01:34:38;100873.44;;;21.48;100.00
30421;BME280;17218;54.070;10.012;2022-07-01T01:37:07;100878.78;;;21.47;100.00
30421;BME280;17218;54.070;10.012;2022-07-01T01:39:35;100878.31;;;21.38;100.00
30421;BME280;17218;54.070;10.012;2022-07-01T01:42:04;100877.16;;;21.26;100.00
30421;BME280;17218;54.070;10.012;2022-07-01T01:44:30;100866.16;;;21.18;100.00
30421;BME280;17218;54.070;10.012;2022-07-01T01:46:57;100852.84;;;21.21;100.00
30421;BME280;17218;54.070;10.012;2022-07-01T01:49:24;100853.75;;;21.20;100.00
30421;BME280;17218;54.070;10.012;2022-07-01T01:51:50;100853.25;;;20.94;100.00
30421;BME280;17218;54.070;10.012;2022-07-01T01:54:17;100858.00;;;20.68;100.00
30421;BME280;17218;54.070;10.012;2022-07-01T01:56:44;100872.19;;;20.65;100.00
30421;BME280;17218;54.070;10.012;2022-07-01T01:59:11;100873.97;;;20.65;100.00
30421;BME280;17218;54.070;10.012;2022-07-01T02:01:38;100870.34;;;20.67;100.00
30421;BME280;17218;54.070;10.012;2022-07-01T02:04:05;100858.88;;;20.68;100.00
30421;BME280;17218;54.070;10.012;2022-07-01T02:06:32;100860.81;;;20.65;100.00
30421;BME280;17218;54.070;10.012;2022-07-01T02:08:59;100861.78;;;20.62;100.00
30421;BME280;17218;54.070;10.012;2022-07-01T02:11:26;100849.94;;;20.53;100.00
30421;BME280;17218;54.070;10.012;2022-07-01T02:13:54;100842.66;;;20.58;100.00
30421;BME280;17218;54.070;10.012;2022-07-01T02:16:21;100846.69;;;20.66;100.00
30421;BME280;17218;54.070;10.012;2022-07-01T02:18:47;100848.28;;;20.70;100.00
30421;BME280;17218;54.070;10.012;2022-07-01T02:21:14;100849.59;;;20.79;100.00
30421;BME280;17218;54.070;10.012;2022-07-01T02:23:41;100845.53;;;20.91;100.00
30421;BME280;17218;54.070;10.012;2022-07-01T02:26:07;100833.78;;;20.98;100.00
30421;BME280;17218;54.070;10.012;2022-07-01T02:28:34;100828.28;;;21.03;100.00
30421;BME280;17218;54.070;10.012;2022-07-01T02:31:02;100828.44;;;21.00;100.00
30421;BME280;17218;54.070;10.012;2022-07-01T02:33:28;100838.06;;;21.01;100.00
30421;BME280;17218;54.070;10.012;2022-07-01T02:35:56;100839.13;;;20.96;100.00
30421;BME280;17218;54.070;10.012;2022-07-01T02:38:23;100836.50;;;20.96;100.00
30421;BME280;17218;54.070;10.012;2022-07-01T02:40:50;100849.84;;;20.92;100.00
30421;BME280;17218;54.070;10.012;2022-07-01T02:43:16;100846.50;;;20.88;100.00
30421;BME280;17218;54.070;10.012;2022-07-01T02:45:43;100853.34;;;20.92;100.00
30421;BME280;17218;54.070;10.012;2022-07-01T02:48:11;100851.66;;;20.91;100.00
30421;BME280;17218;54.070;10.012;2022-07-01T02:50:38;100841.94;;;20.92;100.00
30421;BME280;17218;54.070;10.012;2022-07-01T02:53:04;100841.16;;;20.90;100.00
30421;BME280;17218;54.070;10.012;2022-07-01T02:55:31;100864.66;;;20.94;100.00
30421;BME280;17218;54.070;10.012;2022-07-01T02:57:57;100879.53;;;20.95;100.00
30421;BME280;17218;54.070;10.012;2022-07-01T03:00:24;100874.63;;;20.88;100.00
30421;BME280;17218;54.070;10.012;2022-07-01T03:02:51;100873.78;;;20.87;100.00
30421;BME280;17218;54.070;10.012;2022-07-01T03:05:19;100873.47;;;20.93;100.00
30421;BME280;17218;54.070;10.012;2022-07-01T03:07:46;100866.38;;;20.95;100.00
30421;BME280;17218;54.070;10.012;2022-07-01T03:10:13;100872.44;;;20.78;100.00
30421;BME280;17218;54.070;10.012;2022-07-01T03:12:40;100896.16;;;20.59;100.00
30421;BME280;17218;54.070;10.012;2022-07-01T03:15:08;100892.75;;;20.57;100.00
30421;BME280;17218;54.070;10.012;2022-07-01T03:17:38;100885.63;;;20.59;100.00
30421;BME280;17218;54.070;10.012;2022-07-01T03:20:06;100889.66;;;20.66;100.00
30421;BME280;17218;54.070;10.012;2022-07-01T03:22:36;100897.28;;;20.72;100.00
30421;BME280;17218;54.070;10.012;2022-07-01T03:25:03;100906.94;;;20.72;100.00
30421;BME280;17218;54.070;10.012;2022-07-01T03:27:30;100901.75;;;20.70;100.00
30421;BME280;17218;54.070;10.012;2022-07-01T03:29:57;100907.03;;;20.70;100.00
30421;BME280;17218;54.070;10.012;2022-07-01T03:32:24;100913.19;;;20.69;100.00
30421;BME280;17218;54.070;10.012;2022-07-01T03:34:52;100912.44;;;20.67;100.00
30421;BME280;17218;54.070;10.012;2022-07-01T03:37:20;100921.31;;;20.65;100.00
30421;BME280;17218;54.070;10.012;2022-07-01T03:39:49;100928.50;;;20.61;100.00
30421;BME280;17218;54.070;10.012;2022-07-01T03:42:16;100931.78;;;20.66;100.00
30421;BME280;17218;54.070;10.012;2022-07-01T03:44:43;100922.03;;;20.68;100.00
30421;BME280;17218;54.070;10.012;2022-07-01T03:47:10;100938.25;;;20.59;100.00
30421;BME280;17218;54.070;10.012;2022-07-01T03:49:37;100952.63;;;20.32;100.00
30421;BME280;17218;54.070;10.012;2022-07-01T03:52:04;100953.78;;;20.25;100.00
30421;BME280;17218;54.070;10.012;2022-07-01T03:54:30;100961.41;;;20.12;100.00
30421;BME280;17218;54.070;10.012;2022-07-01T03:57:00;100957.09;;;19.88;100.00
30421;BME280;17218;54.070;10.012;2022-07-01T03:59:28;100973.09;;;19.84;100.00
30421;BME280;17218;54.070;10.012;2022-07-01T04:01:56;100976.75;;;19.59;100.00
30421;BME280;17218;54.070;10.012;2022-07-01T04:04:23;100980.22;;;19.59;100.00
30421;BME280;17218;54.070;10.012;2022-07-01T04:06:50;100969.38;;;19.46;100.00
30421;BME280;17218;54.070;10.012;2022-07-01T04:09:17;100986.16;;;19.42;100.00
30421;BME280;17218;54.070;10.012;2022-07-01T04:11:46;100994.19;;;19.39;100.00
30421;BME280;17218;54.070;10.012;2022-07-01T04:14:15;100986.91;;;19.23;100.00
30421;BME280;17218;54.070;10.012;2022-07-01T04:16:43;100982.81;;;19.16;100.00
30421;BME280;17218;54.070;10.012;2022-07-01T04:19:10;101106.22;;;19.16;100.00
30421;BME280;17218;54.070;10.012;2022-07-01T04:21:38;101093.97;;;19.16;100.00
30421;BME280;17218;54.070;10.012;2022-07-01T04:24:22;101108.75;;;19.19;100.00
30421;BME280;17218;54.070;10.012;2022-07-01T04:26:50;101115.19;;;19.10;100.00
30421;BME280;17218;54.070;10.012;2022-07-01T04:29:18;101109.94;;;19.10;100.00
30421;BME280;17218;54.070;10.012;2022-07-01T04:31:45;101104.41;;;19.18;100.00
30421;BME280;17218;54.070;10.012;2022-07-01T04:34:11;101104.91;;;19.28;100.00
30421;BME280;17218;54.070;10.012;2022-07-01T04:36:38;101104.97;;;19.26;100.00
30421;BME280;17218;54.070;10.012;2022-07-01T04:39:05;101108.34;;;19.30;100.00
30421;BME280;17218;54.070;10.012;2022-07-01T04:41:32;101096.63;;;19.39;100.00
30421;BME280;17218;54.070;10.012;2022-07-01T04:44:31;101095.66;;;19.41;100.00
30421;BME280;17218;54.070;10.012;2022-07-01T04:46:59;101090.22;;;19.46;100.00
30421;BME280;17218;54.070;10.012;2022-07-01T04:49:26;101067.97;;;19.55;100.00
30421;BME280;17218;54.070;10.012;2022-07-01T04:51:53;101071.38;;;19.79;100.00
30421;BME280;17218;54.070;10.012;2022-07-01T04:54:20;101077.47;;;20.02;100.00
30421;BME280;17218;54.070;10.012;2022-07-01T04:56:46;101076.44;;;20.28;100.00
30421;BME280;17218;54.070;10.012;2022-07-01T04:59:14;101054.34;;;20.32;100.00
30421;BME280;17218;54.070;10.012;2022-07-01T05:01:42;101043.59;;;20.36;100.00
30421;BME280;17218;54.070;10.012;2022-07-01T05:04:10;101063.22;;;20.29;100.00
30421;BME280;17218;54.070;10.012;2022-07-01T05:06:36;101058.75;;;20.31;100.00
30421;BME280;17218;54.070;10.012;2022-07-01T05:09:03;101079.25;;;20.44;100.00
30421;BME280;17218;54.070;10.012;2022-07-01T05:11:31;101080.31;;;20.40;100.00
30421;BME280;17218;54.070;10.012;2022-07-01T05:13:57;101088.00;;;20.44;100.00
30421;BME280;17218;54.070;10.012;2022-07-01T05:16:24;101096.94;;;20.40;100.00
30421;BME280;17218;54.070;10.012;2022-07-01T05:18:52;101087.53;;;20.34;100.00
30421;BME280;17218;54.070;10.012;2022-07-01T05:21:36;101090.31;;;20.31;100.00
30421;BME280;17218;54.070;10.012;2022-07-01T05:24:20;101089.06;;;20.19;100.00
30421;BME280;17218;54.070;10.012;2022-07-01T05:26:46;101109.56;;;19.88;100.00
30421;BME280;17218;54.070;10.012;2022-07-01T05:29:13;101125.53;;;19.61;100.00
30421;BME280;17218;54.070;10.012;2022-07-01T05:31:41;101140.66;;;19.32;100.00
30421;BME280;17218;54.070;10.012;2022-07-01T05:34:09;101139.84;;;19.30;100.00
30421;BME280;17218;54.070;10.012;2022-07-01T05:36:35;101135.63;;;19.26;100.00
30421;BME280;17218;54.070;10.012;2022-07-01T05:39:02;101133.50;;;19.12;100.00
30421;BME280;17218;54.070;10.012;2022-07-01T05:41:30;101133.03;;;19.00;100.00
30421;BME280;17218;54.070;10.012;2022-07-01T05:43:56;101125.03;;;19.03;100.00
30421;BME280;17218;54.070;10.012;2022-07-01T05:46:23;101129.22;;;19.09;100.00
30421;BME280;17218;54.070;10.012;2022-07-01T05:48:49;101136.13;;;19.12;100.00
30421;BME280;17218;54.070;10.012;2022-07-01T05:51:17;101143.84;;;19.16;100.00
30421;BME280;17218;54.070;10.012;2022-07-01T05:53:44;101144.09;;;19.08;100.00
30421;BME280;17218;54.070;10.012;2022-07-01T05:56:12;101140.13;;;18.73;100.00
30421;BME280;17218;54.070;10.012;2022-07-01T05:58:39;101157.44;;;18.53;100.00
30421;BME280;17218;54.070;10.012;2022-07-01T06:01:06;101169.94;;;18.44;100.00
30421;BME280;17218;54.070;10.012;2022-07-01T06:03:32;101177.38;;;18.31;100.00
30421;BME280;17218;54.070;10.012;2022-07-01T06:05:59;101213.63;;;18.18;100.00
30421;BME280;17218;54.070;10.012;2022-07-01T06:08:27;101201.47;;;18.16;100.00
30421;BME280;17218;54.070;10.012;2022-07-01T06:10:53;101212.84;;;18.15;100.00
30421;BME280;17218;54.070;10.012;2022-07-01T06:13:20;101220.59;;;18.19;100.00
30421;BME280;17218;54.070;10.012;2022-07-01T06:15:47;101213.56;;;18.20;100.00
30421;BME280;17218;54.070;10.012;2022-07-01T06:18:13;101218.03;;;18.16;100.00
30421;BME280;17218;54.070;10.012;2022-07-01T06:20:40;101214.28;;;18.25;100.00
30421;BME280;17218;54.070;10.012;2022-07-01T06:23:06;101209.19;;;18.20;100.00
30421;BME280;17218;54.070;10.012;2022-07-01T06:25:34;101219.78;;;18.17;100.00
30421;BME280;17218;54.070;10.012;2022-07-01T06:28:01;101222.75;;;18.05;100.00
30421;BME280;17218;54.070;10.012;2022-07-01T06:30:28;101233.81;;;18.15;100.00
30421;BME280;17218;54.070;10.012;2022-07-01T06:32:54;101222.19;;;17.95;100.00
30421;BME280;17218;54.070;10.012;2022-07-01T06:35:21;101230.22;;;17.88;100.00
30421;BME280;17218;54.070;10.012;2022-07-01T06:37:47;101241.72;;;17.84;100.00
30421;BME280;17218;54.070;10.012;2022-07-01T06:40:14;101252.16;;;17.86;100.00
30421;BME280;17218;54.070;10.012;2022-07-01T06:42:42;101263.00;;;17.72;100.00
30421;BME280;17218;54.070;10.012;2022-07-01T06:45:09;101272.16;;;17.58;100.00
30421;BME280;17218;54.070;10.012;2022-07-01T06:47:36;101291.31;;;17.60;100.00
30421;BME280;17218;54.070;10.012;2022-07-01T06:50:03;101277.28;;;17.61;100.00
30421;BME280;17218;54.070;10.012;2022-07-01T06:52:30;101278.66;;;17.43;100.00
30421;BME280;17218;54.070;10.012;2022-07-01T06:54:57;101276.94;;;17.42;100.00
30421;BME280;17218;54.070;10.012;2022-07-01T06:57:23;101291.00;;;17.39;100.00
30421;BME280;17218;54.070;10.012;2022-07-01T06:59:51;101304.66;;;17.51;100.00
30421;BME280;17218;54.070;10.012;2022-07-01T07:02:18;101311.56;;;17.53;100.00
30421;BME280;17218;54.070;10.012;2022-07-01T07:04:45;101307.38;;;17.46;100.00
30421;BME280;17218;54.070;10.012;2022-07-01T07:07:12;101321.72;;;17.33;100.00
30421;BME280;17218;54.070;10.012;2022-07-01T07:09:39;101320.19;;;17.24;100.00
30421;BME280;17218;54.070;10.012;2022-07-01T07:12:06;101333.22;;;17.25;100.00
30421;BME280;17218;54.070;10.012;2022-07-01T07:14:32;101348.09;;;17.25;100.00
30421;BME280;17218;54.070;10.012;2022-07-01T07:17:00;101353.47;;;17.19;100.00
30421;BME280;17218;54.070;10.012;2022-07-01T07:19:27;101342.97;;;17.20;100.00
30421;BME280;17218;54.070;10.012;2022-07-01T07:21:53;101341.09;;;17.25;100.00
30421;BME280;17218;54.070;10.012;2022-07-01T07:24:21;101321.69;;;17.34;100.00
30421;BME280;17218;54.070;10.012;2022-07-01T07:26:48;101324.06;;;17.42;100.00
30421;BME280;17218;54.070;10.012;2022-07-01T07:29:14;101332.56;;;17.52;100.00
30421;BME280;17218;54.070;10.012;2022-07-01T07:31:41;101313.13;;;17.59;100.00
30421;BME280;17218;54.070;10.012;2022-07-01T07:34:09;101310.31;;;17.67;100.00
30421;BME280;17218;54.070;10.012;2022-07-01T07:36:35;101311.75;;;17.77;100.00
30421;BME280;17218;54.070;10.012;2022-07-01T07:39:02;101288.78;;;17.87;100.00
30421;BME280;17218;54.070;10.012;2022-07-01T07:41:30;101274.72;;;17.90;100.00
30421;BME280;17218;54.070;10.012;2022-07-01T07:43:56;101267.75;;;17.89;100.00
30421;BME280;17218;54.070;10.012;2022-07-01T07:46:23;101263.25;;;17.94;100.00
30421;BME280;17218;54.070;10.012;2022-07-01T07:48:49;101264.69;;;18.05;100.00
30421;BME280;17218;54.070;10.012;2022-07-01T07:51:17;101254.88;;;18.11;100.00
30421;BME280;17218;54.070;10.012;2022-07-01T07:53:44;101242.19;;;17.97;100.00
30421;BME280;17218;54.070;10.012;2022-07-01T07:56:11;101235.66;;;18.11;100.00
30421;BME280;17218;54.070;10.012;2022-07-01T07:58:38;101229.88;;;18.30;100.00
30421;BME280;17218;54.070;10.012;2022-07-01T08:01:07;101244.25;;;18.45;100.00
30421;BME280;17218;54.070;10.012;2022-07-01T08:03:34;101269.72;;;18.68;100.00
30421;BME280;17218;54.070;10.012;2022-07-01T08:06:00;101280.47;;;18.88;100.00
30421;BME280;17218;54.070;10.012;2022-07-01T08:08:28;101274.41;;;18.86;100.00
30421;BME280;17218;54.070;10.012;2022-07-01T08:10:55;101281.00;;;18.98;100.00
30421;BME280;17218;54.070;10.012;2022-07-01T08:13:21;101281.81;;;19.00;100.00
30421;BME280;17218;54.070;10.012;2022-07-01T08:15:48;101279.44;;;18.92;100.00
30421;BME280;17218;54.070;10.012;2022-07-01T08:18:15;101269.91;;;18.89;100.00
30421;BME280;17218;54.070;10.012;2022-07-01T08:20:41;101269.34;;;19.06;100.00
30421;BME280;17218;54.070;10.012;2022-07-01T08:23:08;101272.19;;;19.26;100.00
30421;BME280;17218;54.070;10.012;2022-07-01T08:25:36;101263.97;;;19.35;100.00
30421;BME280;17218;54.070;10.012;2022-07-01T08:28:03;101270.66;;;19.44;100.00
30421;BME280;17218;54.070;10.012;2022-07-01T08:30:30;101256.38;;;19.27;100.00
30421;BME280;17218;54.070;10.012;2022-07-01T08:32:56;101259.31;;;19.18;100.00
30421;BME280;17218;54.070;10.012;2022-07-01T08:35:23;101266.75;;;18.52;100.00
30421;BME280;17218;54.070;10.012;2022-07-01T08:37:50;101274.50;;;18.55;100.00
30421;BME280;17218;54.070;10.012;2022-07-01T08:40:16;101281.97;;;18.68;100.00
30421;BME280;17218;54.070;10.012;2022-07-01T08:42:44;101277.03;;;18.86;100.00
30421;BME280;17218;54.070;10.012;2022-07-01T08:45:11;101273.69;;;19.33;100.00
30421;BME280;17218;54.070;10.012;2022-07-01T08:47:49;101253.75;;;19.75;100.00
30421;BME280;17218;54.070;10.012;2022-07-01T08:50:16;101243.94;;;20.03;100.00
30421;BME280;17218;54.070;10.012;2022-07-01T08:52:43;101260.19;;;20.37;100.00
30421;BME280;17218;54.070;10.012;2022-07-01T08:55:09;101238.53;;;20.53;100.00
30421;BME280;17218;54.070;10.012;2022-07-01T08:57:36;101258.19;;;19.97;100.00
30421;BME280;17218;54.070;10.012;2022-07-01T09:00:06;101247.41;;;19.33;100.00
30421;BME280;17218;54.070;10.012;2022-07-01T09:02:55;101258.19;;;19.00;100.00
30421;BME280;17218;54.070;10.012;2022-07-01T09:05:24;101273.44;;;18.88;100.00
30421;BME280;17218;54.070;10.012;2022-07-01T09:07:56;101285.69;;;18.62;100.00
30421;BME280;17218;54.070;10.012;2022-07-01T09:10:24;101289.84;;;18.68;100.00
30421;BME280;17218;54.070;10.012;2022-07-01T09:12:50;101295.38;;;18.58;100.00
30421;BME280;17218;54.070;10.012;2022-07-01T09:15:24;101301.38;;;18.64;100.00
30421;BME280;17218;54.070;10.012;2022-07-01T09:17:56;101295.38;;;18.60;100.00
30421;BME280;17218;54.070;10.012;2022-07-01T09:20:24;101292.47;;;18.41;100.00
30421;BME280;17218;54.070;10.012;2022-07-01T09:23:03;101295.84;;;18.44;100.00
30421;BME280;17218;54.070;10.012;2022-07-01T09:25:32;101292.06;;;18.53;100.00
30421;BME280;17218;54.070;10.012;2022-07-01T09:28:10;101292.50;;;18.39;100.00
30421;BME280;17218;54.070;10.012;2022-07-01T09:30:40;101300.16;;;18.47;100.00
30421;BME280;17218;54.070;10.012;2022-07-01T09:33:12;101296.88;;;18.39;100.00
30421;BME280;17218;54.070;10.012;2022-07-01T09:35:39;101311.81;;;18.36;100.00
30421;BME280;17218;54.070;10.012;2022-07-01T09:38:10;101310.75;;;18.14;100.00
30421;BME280;17218;54.070;10.012;2022-07-01T09:40:55;101313.91;;;17.95;100.00
30421;BME280;17218;54.070;10.012;2022-07-01T09:43:23;101333.78;;;18.02;100.00
30421;BME280;17218;54.070;10.012;2022-07-01T09:45:54;101319.25;;;18.22;100.00
30421;BME280;17218;54.070;10.012;2022-07-01T09:48:21;101313.59;;;18.36;100.00
30421;BME280;17218;54.070;10.012;2022-07-01T09:50:49;101315.91;;;18.17;100.00
30421;BME280;17218;54.070;10.012;2022-07-01T09:53:16;101315.91;;;18.17;100.00
30421;BME280;17218;54.070;10.012;2022-07-01T09:55:42;101334.13;;;18.21;100.00
30421;BME280;17218;54.070;10.012;2022-07-01T09:58:09;101330.28;;;18.33;100.00
30421;BME280;17218;54.070;10.012;2022-07-01T10:00:37;101341.25;;;18.46;100.00
30421;BME280;17218;54.070;10.012;2022-07-01T10:03:05;101333.25;;;18.50;100.00
30421;BME280;17218;54.070;10.012;2022-07-01T10:05:37;101332.38;;;18.51;100.00
30421;BME280;17218;54.070;10.012;2022-07-01T10:08:14;101325.44;;;18.48;100.00
30421;BME280;17218;54.070;10.012;2022-07-01T10:10:49;101321.72;;;18.55;100.00
30421;BME280;17218;54.070;10.012;2022-07-01T10:13:21;101314.84;;;18.53;100.00
30421;BME280;17218;54.070;10.012;2022-07-01T10:15:51;101314.84;;;18.80;100.00
30421;BME280;17218;54.070;10.012;2022-07-01T10:18:20;101314.75;;;19.08;100.00
30421;BME280;17218;54.070;10.012;2022-07-01T10:20:48;101300.94;;;19.30;100.00
30421;BME280;17218;54.070;10.012;2022-07-01T10:23:15;101307.38;;;19.46;100.00
30421;BME280;17218;54.070;10.012;2022-07-01T10:25:43;101307.63;;;19.14;100.00
30421;BME280;17218;54.070;10.012;2022-07-01T10:28:18;101324.06;;;19.19;100.00
30421;BME280;17218;54.070;10.012;2022-07-01T10:30:57;101320.47;;;18.94;100.00
30421;BME280;17218;54.070;10.012;2022-07-01T10:33:36;101341.44;;;18.69;100.00
30421;BME280;17218;54.070;10.012;2022-07-01T10:36:05;101336.63;;;18.82;100.00
30421;BME280;17218;54.070;10.012;2022-07-01T10:38:32;101340.72;;;18.91;100.00
30421;BME280;17218;54.070;10.012;2022-07-01T10:40:59;101342.19;;;18.73;100.00
30421;BME280;17218;54.070;10.012;2022-07-01T10:43:35;101357.16;;;18.69;100.00
30421;BME280;17218;54.070;10.012;2022-07-01T10:48:48;101370.84;;;18.21;100.00
30421;BME280;17218;54.070;10.012;2022-07-01T10:51:15;101376.66;;;17.99;100.00
30421;BME280;17218;54.070;10.012;2022-07-01T10:54:02;101393.56;;;17.89;100.00
30421;BME280;17218;54.070;10.012;2022-07-01T10:56:38;101391.50;;;18.00;100.00
30421;BME280;17218;54.070;10.012;2022-07-01T10:59:05;101397.94;;;18.20;100.00
30421;BME280;17218;54.070;10.012;2022-07-01T11:01:32;101384.25;;;18.09;100.00
30421;BME280;17218;54.070;10.012;2022-07-01T11:04:01;101388.38;;;18.19;100.00
30421;BME280;17218;54.070;10.012;2022-07-01T11:06:27;101386.59;;;18.20;100.00
30421;BME280;17218;54.070;10.012;2022-07-01T11:08:54;101389.78;;;18.31;100.00
30421;BME280;17218;54.070;10.012;2022-07-01T11:11:21;101386.97;;;18.38;100.00
30421;BME280;17218;54.070;10.012;2022-07-01T11:13:48;101392.44;;;18.30;100.00
30421;BME280;17218;54.070;10.012;2022-07-01T11:16:14;101402.25;;;18.23;100.00
30421;BME280;17218;54.070;10.012;2022-07-01T11:18:41;101410.19;;;18.21;100.00
30421;BME280;17218;54.070;10.012;2022-07-01T11:21:09;101421.69;;;17.82;100.00
30421;BME280;17218;54.070;10.012;2022-07-01T11:23:37;101425.13;;;17.49;100.00
30421;BME280;17218;54.070;10.012;2022-07-01T11:26:05;101437.22;;;17.55;100.00
30421;BME280;17218;54.070;10.012;2022-07-01T11:28:38;101429.25;;;17.60;100.00
30421;BME280;17218;54.070;10.012;2022-07-01T11:31:05;101449.63;;;17.48;100.00
30421;BME280;17218;54.070;10.012;2022-07-01T11:33:32;101456.56;;;17.49;100.00
30421;BME280;17218;54.070;10.012;2022-07-01T11:35:58;101459.66;;;17.31;100.00
30421;BME280;17218;54.070;10.012;2022-07-01T11:38:58;101470.50;;;17.15;100.00
30421;BME280;17218;54.070;10.012;2022-07-01T11:41:42;101467.00;;;17.16;100.00
30421;BME280;17218;54.070;10.012;2022-07-01T11:44:09;101473.19;;;17.12;100.00
30421;BME280;17218;54.070;10.012;2022-07-01T11:46:35;101471.38;;;17.15;100.00
30421;BME280;17218;54.070;10.012;2022-07-01T11:49:10;101480.84;;;17.21;100.00
30421;BME280;17218;54.070;10.012;2022-07-01T11:51:37;101486.00;;;17.24;100.00
30421;BME280;17218;54.070;10.012;2022-07-01T11:54:05;101484.53;;;17.11;100.00
30421;BME280;17218;54.070;10.012;2022-07-01T11:56:34;101484.13;;;16.90;100.00
30421;BME280;17218;54.070;10.012;2022-07-01T11:59:04;101487.84;;;16.78;100.00
30421;BME280;17218;54.070;10.012;2022-07-01T12:01:32;101502.53;;;16.85;100.00
30421;BME280;17218;54.070;10.012;2022-07-01T12:04:01;101507.66;;;16.90;100.00
30421;BME280;17218;54.070;10.012;2022-07-01T12:06:29;101504.94;;;16.95;100.00
30421;BME280;17218;54.070;10.012;2022-07-01T12:08:56;101505.78;;;16.97;100.00
30421;BME280;17218;54.070;10.012;2022-07-01T12:11:25;101507.22;;;17.09;100.00
30421;BME280;17218;54.070;10.012;2022-07-01T12:13:52;101515.75;;;17.20;100.00
30421;BME280;17218;54.070;10.012;2022-07-01T12:16:19;101523.13;;;17.40;100.00
30421;BME280;17218;54.070;10.012;2022-07-01T12:18:54;101522.59;;;17.62;100.00
30421;BME280;17218;54.070;10.012;2022-07-01T12:21:21;101503.84;;;17.80;100.00
30421;BME280;17218;54.070;10.012;2022-07-01T12:24:08;101485.94;;;17.97;100.00
30421;BME280;17218;54.070;10.012;2022-07-01T12:26:46;101474.34;;;18.06;100.00
30421;BME280;17218;54.070;10.012;2022-07-01T12:29:13;101466.03;;;18.23;100.00
30421;BME280;17218;54.070;10.012;2022-07-01T12:31:40;101454.41;;;18.00;100.00
30421;BME280;17218;54.070;10.012;2022-07-01T12:34:07;101467.88;;;18.20;100.00
30421;BME280;17218;54.070;10.012;2022-07-01T12:36:33;101456.00;;;18.40;100.00
30421;BME280;17218;54.070;10.012;2022-07-01T12:39:02;101443.09;;;18.32;100.00